Time;durP1;ratioP1;P1;durP2;ratioP2;P2;SDS_P1;SDS_P2;PMS_P1;PMS_P2;Temp;Humidity;BMP_temperature;BMP_pressure;BME280_temperature;BME280_humidity;BME280_pressure;Samples;Min_cycle;Max_cycle;Signal;HPM_P1;HPM_P2
2022/08/07 00:01:05;;;;;;;4.40;0.90;;;;;;;15.02;70.75;96801.53;5081431;28;20151;-74
2022/08/07 00:03:31;;;;;;;3.70;0.90;;;;;;;15.06;70.92;96811.63;5078287;28;21829;-75
2022/08/07 00:05:57;;;;;;;2.33;0.90;;;;;;;15.12;71.48;96809.25;5077110;28;20036;-74
2022/08/07 00:08:23;;;;;;;3.53;1.00;;;;;;;15.02;72.24;96806.81;5082039;28;20028;-75
2022/08/07 00:10:50;;;;;;;3.20;1.10;;;;;;;14.97;73.06;96814.47;5082155;28;20130;-74
2022/08/07 00:13:17;;;;;;;2.40;0.90;;;;;;;14.95;73.94;96805.84;5080629;28;20032;-74
2022/08/07 00:15:43;;;;;;;2.00;0.90;;;;;;;14.78;74.74;96805.91;5082113;28;20050;-75
2022/08/07 00:18:09;;;;;;;1.73;1.00;;;;;;;14.83;75.22;96806.25;5083721;28;20040;-75
2022/08/07 00:20:37;;;;;;;2.37;1.10;;;;;;;14.82;75.53;96815.19;5081441;28;20032;-74
2022/08/07 00:23:05;;;;;;;2.83;1.00;;;;;;;14.84;75.98;96813.19;5080664;28;20040;-75
2022/08/07 00:25:32;;;;;;;2.97;0.90;;;;;;;14.84;76.29;96809.72;5084336;28;20030;-74
2022/08/07 00:27:57;;;;;;;3.07;0.93;;;;;;;14.72;77.15;96811.06;5085498;28;20024;-74
2022/08/07 00:30:23;;;;;;;1.23;0.80;;;;;;;14.67;77.90;96808.13;5082579;28;21573;-74
2022/08/07 00:32:50;;;;;;;2.03;0.90;;;;;;;14.66;78.42;96804.66;5083575;28;20028;-74
2022/08/07 00:35:19;;;;;;;2.97;1.00;;;;;;;14.65;78.67;96807.47;5082199;28;20032;-75
2022/08/07 00:37:45;;;;;;;2.60;1.10;;;;;;;14.71;78.37;96804.97;5082100;28;20502;-75
2022/08/07 00:40:11;;;;;;;2.93;1.00;;;;;;;14.45;80.48;96804.34;5075995;28;20040;-75
2022/08/07 00:42:37;;;;;;;4.70;1.73;;;;;;;14.45;80.95;96799.06;5080061;28;20032;-74
2022/08/07 00:45:04;;;;;;;3.27;0.97;;;;;;;14.46;81.24;96803.38;5086186;28;20063;-75
2022/08/07 00:47:30;;;;;;;1.47;0.70;;;;;;;14.49;81.39;96810.97;5083846;28;20056;-75
2022/08/07 00:49:56;;;;;;;3.10;1.20;;;;;;;14.24;83.57;96812.81;5082019;28;20027;-74
2022/08/07 00:52:22;;;;;;;5.50;1.00;;;;;;;14.19;84.02;96816.00;5083474;28;20032;-74
2022/08/07 00:54:48;;;;;;;2.20;0.87;;;;;;;14.20;83.60;96811.53;5064539;28;20028;-74
2022/08/07 00:57:15;;;;;;;2.87;1.10;;;;;;;14.10;84.72;96819.63;5078953;28;20111;-75
2022/08/07 00:59:42;;;;;;;2.17;0.80;;;;;;;14.07;85.76;96815.50;5062563;28;20093;-75
2022/08/07 01:02:08;;;;;;;1.97;0.90;;;;;;;14.10;85.73;96814.34;5079957;28;20032;-74
2022/08/07 01:04:34;;;;;;;1.83;1.00;;;;;;;14.20;85.32;96814.97;5084202;28;20389;-74
2022/08/07 01:07:00;;;;;;;5.07;0.83;;;;;;;14.15;86.45;96817.28;5081632;28;20127;-75
2022/08/07 01:09:27;;;;;;;3.30;1.30;;;;;;;14.15;86.93;96819.94;5066419;28;20165;-74
2022/08/07 01:11:54;;;;;;;1.40;0.90;;;;;;;14.11;87.70;96821.28;5080992;28;20036;-74
2022/08/07 01:14:21;;;;;;;2.00;0.90;;;;;;;14.19;88.27;96816.00;5079520;28;20028;-74
2022/08/07 01:16:47;;;;;;;1.70;0.80;;;;;;;14.21;86.85;96818.44;5064544;28;21690;-74
2022/08/07 01:19:15;;;;;;;2.03;0.97;;;;;;;14.08;87.21;96817.16;5081053;28;20143;-74
2022/08/07 01:21:41;;;;;;;1.53;0.93;;;;;;;14.25;86.19;96807.38;5065272;28;20040;-74
2022/08/07 01:24:08;;;;;;;2.80;0.80;;;;;;;14.19;86.87;96808.06;5082185;28;20034;-74
2022/08/07 01:26:34;;;;;;;2.00;0.80;;;;;;;14.09;87.80;96812.69;5081923;28;20116;-74
2022/08/07 01:29:00;;;;;;;4.13;1.00;;;;;;;14.08;87.54;96809.22;5071951;28;20024;-74
2022/08/07 01:31:30;;;;;;;2.07;1.10;;;;;;;13.88;88.52;96806.09;5076098;28;20028;-75
2022/08/07 01:33:59;;;;;;;2.33;0.80;;;;;;;13.95;88.62;96805.41;5083294;28;20028;-74
2022/08/07 01:36:29;;;;;;;2.33;0.83;;;;;;;13.82;90.33;96803.28;5079788;28;20120;-75
2022/08/07 01:38:57;;;;;;;2.30;1.00;;;;;;;13.67;90.80;96808.38;5085510;28;20101;-74
2022/08/07 01:41:25;;;;;;;1.43;0.70;;;;;;;13.67;91.00;96800.47;5086171;28;20066;-75
2022/08/07 01:43:51;;;;;;;2.30;0.83;;;;;;;13.58;91.51;96804.09;5088215;28;20044;-74
2022/08/07 01:46:19;;;;;;;1.10;0.70;;;;;;;13.60;91.29;96802.94;5084516;28;20035;-74
2022/08/07 01:48:47;;;;;;;3.93;1.00;;;;;;;13.60;91.47;96800.28;5086736;28;20120;-74
2022/08/07 01:51:20;;;;;;;2.67;0.83;;;;;;;13.50;91.93;96804.91;5085029;28;20020;-74
2022/08/07 01:53:50;;;;;;;3.10;0.80;;;;;;;13.57;91.60;96803.25;5067831;28;20039;-74
2022/08/07 01:56:24;;;;;;;1.07;0.70;;;;;;;13.41;93.40;96806.72;5084238;28;20020;-74
2022/08/07 01:58:58;;;;;;;2.83;0.90;;;;;;;13.32;94.00;96796.31;5083706;28;20740;-74
2022/08/07 02:01:30;;;;;;;5.30;0.90;;;;;;;13.33;94.32;96804.06;5087374;28;20036;-74
2022/08/07 02:04:05;;;;;;;1.20;0.70;;;;;;;13.38;94.26;96800.91;5089148;28;20127;-74
2022/08/07 02:06:33;;;;;;;4.20;0.80;;;;;;;13.37;94.71;96794.81;5090359;28;20493;-75
2022/08/07 02:09:06;;;;;;;3.13;0.80;;;;;;;13.52;93.67;96802.94;5072234;28;20032;-74
2022/08/07 02:11:37;;;;;;;1.67;0.80;;;;;;;13.44;93.73;96801.09;5084582;28;20036;-74
2022/08/07 02:14:06;;;;;;;2.50;0.80;;;;;;;13.37;94.93;96794.00;5069288;28;20115;-74
2022/08/07 02:16:36;;;;;;;3.60;1.00;;;;;;;13.25;95.98;96796.13;5070908;28;20029;-74
2022/08/07 02:19:05;;;;;;;3.40;1.13;;;;;;;13.29;96.52;96786.88;5089174;28;20032;-74
2022/08/07 02:21:34;;;;;;;1.70;0.63;;;;;;;13.35;96.25;96783.59;5086395;28;20043;-74
2022/08/07 02:24:03;;;;;;;2.53;0.80;;;;;;;13.22;97.37;96785.84;5089372;28;20689;-75
2022/08/07 02:26:31;;;;;;;2.53;0.80;;;;;;;13.18;98.51;96785.34;5083060;28;20031;-74
2022/08/07 02:28:57;;;;;;;2.30;0.83;;;;;;;13.23;97.58;96778.75;5072145;28;20024;-74
2022/08/07 02:31:26;;;;;;;1.37;0.73;;;;;;;13.07;99.20;96777.72;5087668;28;20111;-74
2022/08/07 02:33:53;;;;;;;1.33;0.80;;;;;;;13.02;99.52;96779.22;5073667;28;20392;-74
2022/08/07 02:36:20;;;;;;;2.83;1.30;;;;;;;13.07;99.63;96776.91;5082884;28;20404;-74
2022/08/07 02:38:47;;;;;;;1.70;0.90;;;;;;;13.09;100.00;96785.50;5081972;28;20115;-73
2022/08/07 02:41:13;;;;;;;2.57;0.93;;;;;;;12.91;100.00;96782.94;5087134;28;20446;-74
2022/08/07 02:43:42;;;;;;;4.07;0.90;;;;;;;12.98;100.00;96778.72;5085360;28;20028;-74
2022/08/07 02:46:11;;;;;;;2.47;1.27;;;;;;;12.94;100.00;96783.47;5088081;28;20032;-74
2022/08/07 02:48:38;;;;;;;2.50;0.80;;;;;;;12.79;100.00;96785.06;5085836;28;20086;-74
2022/08/07 02:51:10;;;;;;;6.70;1.23;;;;;;;12.71;100.00;96782.41;5087108;28;20039;-74
2022/08/07 02:53:40;;;;;;;1.73;0.90;;;;;;;12.72;100.00;96778.78;5069892;28;20024;-74
2022/08/07 02:56:13;;;;;;;0.95;0.65;;;;;;;12.71;100.00;96772.69;5086215;28;20035;-74
2022/08/07 02:58:41;;;;;;;5.40;1.10;;;;;;;12.93;100.00;96771.25;5087163;28;20028;-74
2022/08/07 03:01:09;;;;;;;3.03;1.50;;;;;;;12.92;100.00;96772.25;5067700;28;20499;-74
2022/08/07 03:03:35;;;;;;;2.23;1.10;;;;;;;12.95;100.00;96773.75;5081638;28;20103;-74
2022/08/07 03:06:02;;;;;;;3.10;0.93;;;;;;;12.87;100.00;96771.88;5086576;28;20889;-74
2022/08/07 03:08:28;;;;;;;3.27;1.17;;;;;;;12.74;100.00;96779.44;5082922;28;20032;-74
2022/08/07 03:10:55;;;;;;;3.30;1.27;;;;;;;12.78;100.00;96772.88;5084865;28;20035;-75
2022/08/07 03:13:28;;;;;;;2.38;1.17;;;;;;;12.70;100.00;96770.19;5094403;28;20032;-74
2022/08/07 03:15:54;;;;;;;3.20;0.90;;;;;;;12.74;100.00;96782.91;5082747;28;20097;-74
2022/08/07 03:18:21;;;;;;;2.43;1.00;;;;;;;12.73;100.00;96770.69;5069277;28;20028;-75
2022/08/07 03:20:47;;;;;;;4.03;1.53;;;;;;;12.69;100.00;96774.63;5084701;28;20051;-74
2022/08/07 03:23:15;;;;;;;2.27;1.13;;;;;;;12.74;100.00;96769.72;5067562;28;20038;-74
2022/08/07 03:25:44;;;;;;;2.00;1.00;;;;;;;12.81;100.00;96771.69;5082251;28;20028;-74
2022/08/07 03:28:15;;;;;;;3.30;1.37;;;;;;;12.73;100.00;96775.16;5084151;28;20040;-74
2022/08/07 03:30:42;;;;;;;2.70;1.30;;;;;;;12.78;100.00;96772.88;5085330;28;20038;-74
2022/08/07 03:33:09;;;;;;;2.07;1.10;;;;;;;12.86;100.00;96777.34;5082613;28;20070;-74
2022/08/07 03:35:38;;;;;;;1.43;0.90;;;;;;;12.87;100.00;96771.06;5082785;28;20613;-74
2022/08/07 03:38:07;;;;;;;1.57;0.87;;;;;;;12.86;100.00;96782.63;5084552;28;20035;-74
2022/08/07 03:40:34;;;;;;;3.77;1.30;;;;;;;12.88;100.00;96786.75;5078218;28;20020;-74
2022/08/07 03:43:01;;;;;;;4.63;2.53;;;;;;;12.75;100.00;96786.38;5084485;28;20158;-75
2022/08/07 03:45:29;;;;;;;3.70;1.57;;;;;;;12.84;100.00;96781.94;5065619;28;20081;-74
2022/08/07 03:47:59;;;;;;;3.00;1.40;;;;;;;12.85;100.00;96779.16;5083037;28;20028;-75
2022/08/07 03:50:26;;;;;;;2.40;1.20;;;;;;;12.86;100.00;96786.06;5082128;28;20541;-74
2022/08/07 03:52:56;;;;;;;3.30;1.40;;;;;;;12.71;100.00;96779.78;5079779;28;20119;-74
2022/08/07 03:55:22;;;;;;;3.47;1.40;;;;;;;12.79;100.00;96782.44;5081740;28;20581;-74
2022/08/07 03:57:50;;;;;;;3.20;1.40;;;;;;;12.86;100.00;96777.34;5068899;28;20024;-74
2022/08/07 04:00:18;;;;;;;3.67;1.30;;;;;;;12.77;100.00;96784.38;5084238;28;20043;-74
2022/08/07 04:02:48;;;;;;;4.20;1.40;;;;;;;12.83;100.00;96778.47;5082881;28;20108;-74
2022/08/07 04:05:23;;;;;;;2.90;1.50;;;;;;;12.88;100.00;96780.66;5085259;28;20028;-74
2022/08/07 04:07:50;;;;;;;4.27;1.40;;;;;;;12.80;100.00;96781.44;5081375;28;20079;-74
2022/08/07 04:10:20;;;;;;;3.30;1.47;;;;;;;12.84;100.00;96777.47;5058417;28;20119;-74
2022/08/07 04:12:49;;;;;;;2.60;1.30;;;;;;;13.03;100.00;96770.28;5083759;28;20024;-75
2022/08/07 04:15:16;;;;;;;3.73;1.40;;;;;;;12.96;100.00;96780.66;5082884;28;20036;-74
2022/08/07 04:17:43;;;;;;;2.13;1.23;;;;;;;12.95;100.00;96784.31;5084753;28;20036;-75
2022/08/07 04:20:13;;;;;;;2.93;1.50;;;;;;;12.90;100.00;96784.75;5079904;28;20069;-74
2022/08/07 04:22:40;;;;;;;2.37;1.40;;;;;;;12.90;100.00;96786.59;5075900;28;20035;-74
2022/08/07 04:25:08;;;;;;;4.33;1.53;;;;;;;12.82;100.00;96776.00;5081893;28;20023;-74
2022/08/07 04:27:35;;;;;;;3.70;1.53;;;;;;;12.82;100.00;96784.75;5082358;28;20024;-74
2022/08/07 04:30:01;;;;;;;4.10;1.50;;;;;;;12.73;100.00;96780.41;5066603;28;20067;-74
2022/08/07 04:32:34;;;;;;;2.67;1.35;;;;;;;12.77;100.00;96784.38;5083411;28;20055;-74
2022/08/07 04:35:05;;;;;;;3.07;1.40;;;;;;;12.89;100.00;96780.47;5083385;28;20044;-74
2022/08/07 04:37:32;;;;;;;3.63;1.30;;;;;;;12.80;100.00;96786.72;5080198;28;20515;-74
2022/08/07 04:39:58;;;;;;;3.17;1.10;;;;;;;12.76;100.00;96784.56;5078192;28;20023;-74
2022/08/07 04:42:27;;;;;;;3.10;1.20;;;;;;;12.79;100.00;96782.44;5079714;28;20024;-74
2022/08/07 04:44:55;;;;;;;1.60;0.80;;;;;;;12.83;100.00;96788.22;5080725;28;20035;-74
2022/08/07 04:47:38;;;;;;;3.07;1.40;;;;;;;13.01;100.00;96788.94;5064780;28;20032;-74
2022/08/07 04:50:16;;;;;;;4.22;1.35;;;;;;;13.15;100.00;96790.13;5082073;28;20477;-74
2022/08/07 04:53:09;;;;;;;3.43;1.40;;;;;;;13.24;100.00;96797.09;5081954;28;20115;-74
2022/08/07 04:55:44;;;;;;;4.10;1.20;;;;;;;13.33;100.00;96795.31;5079120;28;20032;-74
2022/08/07 04:58:45;;;;;;;2.27;1.00;;;;;;;13.39;100.00;96795.50;5078463;28;20512;-74
2022/08/07 05:01:20;;;;;;;2.90;1.03;;;;;;;13.52;100.00;96797.66;5058096;28;20047;-74
2022/08/07 05:04:05;;;;;;;2.90;1.23;;;;;;;13.51;100.00;96793.34;5067439;28;20033;-74
2022/08/07 05:06:37;;;;;;;4.40;1.10;;;;;;;13.62;100.00;96798.31;5077966;28;20549;-74
2022/08/07 05:09:40;;;;;;;2.87;1.30;;;;;;;13.57;100.00;96800.63;5082697;28;20036;-74
2022/08/07 05:12:12;;;;;;;3.97;1.55;;;;;;;13.78;100.00;96802.78;5080505;28;20028;-74
2022/08/07 05:14:43;;;;;;;3.90;1.67;;;;;;;13.67;100.00;96798.63;5086351;28;20507;-74
2022/08/07 05:17:14;;;;;;;3.87;1.50;;;;;;;13.91;100.00;96797.00;5085049;28;20565;-74
2022/08/07 05:19:45;;;;;;;4.60;1.43;;;;;;;14.11;100.00;96793.00;5083647;28;20520;-74
2022/08/07 05:22:16;;;;;;;3.58;1.65;;;;;;;14.11;100.00;96798.28;5087155;28;20028;-74
2022/08/07 05:24:44;;;;;;;2.33;1.50;;;;;;;14.29;100.00;96789.34;5067727;28;20134;-74
2022/08/07 05:27:14;;;;;;;2.50;1.30;;;;;;;14.52;100.00;96792.97;5085392;28;20032;-74
2022/08/07 05:29:42;;;;;;;4.50;1.87;;;;;;;14.75;100.00;96797.50;5085148;28;20696;-73
2022/08/07 05:32:10;;;;;;;3.13;1.00;;;;;;;15.03;100.00;96788.13;5086645;28;20020;-74
2022/08/07 05:34:39;;;;;;;2.47;1.20;;;;;;;15.21;100.00;96790.50;5086411;28;20031;-74
2022/08/07 05:37:07;;;;;;;2.27;1.37;;;;;;;15.09;100.00;96791.91;5070009;28;20055;-74
2022/08/07 05:39:42;;;;;;;3.57;1.50;;;;;;;15.05;100.00;96803.81;5083272;28;20586;-74
2022/08/07 05:42:10;;;;;;;2.17;1.47;;;;;;;15.67;100.00;96787.91;5083120;28;20453;-74
2022/08/07 05:44:38;;;;;;;5.57;1.37;;;;;;;15.57;100.00;96800.53;5086427;28;20031;-74
2022/08/07 05:47:07;;;;;;;3.50;1.20;;;;;;;16.03;100.00;96798.72;5066731;28;20024;-75
2022/08/07 05:49:34;;;;;;;2.73;1.67;;;;;;;15.92;100.00;96798.31;5085914;28;20854;-74
2022/08/07 05:52:00;;;;;;;4.70;1.80;;;;;;;16.24;99.29;96798.03;5084021;28;20081;-77
2022/08/07 05:54:29;;;;;;;4.10;1.70;;;;;;;16.72;96.29;96792.38;5067971;28;20031;-77
2022/08/07 05:56:56;;;;;;;3.10;1.67;;;;;;;16.93;95.07;96791.63;5073537;28;20073;-77
2022/08/07 05:59:25;;;;;;;3.73;2.23;;;;;;;16.89;95.02;96795.69;5081699;28;20161;-75
2022/08/07 06:01:57;;;;;;;2.78;1.60;;;;;;;16.91;97.50;96799.00;5085816;28;20042;-76
2022/08/07 06:04:24;;;;;;;3.27;1.73;;;;;;;16.88;97.41;96792.19;5084361;28;20071;-77
2022/08/07 06:06:50;;;;;;;3.67;1.97;;;;;;;17.22;96.58;96801.41;5084454;28;20024;-76
2022/08/07 06:09:17;;;;;;;3.57;1.60;;;;;;;17.23;96.52;96800.38;5086323;28;20129;-76
2022/08/07 06:11:45;;;;;;;2.20;1.50;;;;;;;17.34;96.28;96804.41;5088371;28;20024;-77
2022/08/07 06:14:12;;;;;;;4.03;2.00;;;;;;;17.43;95.65;96811.22;5088737;28;20492;-76
2022/08/07 06:16:39;;;;;;;4.17;1.90;;;;;;;17.61;94.92;96803.66;5085342;28;20432;-76
2022/08/07 06:19:07;;;;;;;4.70;2.23;;;;;;;17.51;96.07;96799.69;5084238;28;20020;-77
2022/08/07 06:21:35;;;;;;;4.70;1.80;;;;;;;18.13;92.72;96794.53;5085877;28;20119;-77
2022/08/07 06:24:03;;;;;;;5.17;1.70;;;;;;;17.44;96.38;96799.59;5086221;28;20107;-77
2022/08/07 06:26:30;;;;;;;4.03;1.70;;;;;;;17.48;96.81;96800.88;5087666;28;20032;-77
2022/08/07 06:28:58;;;;;;;3.43;1.60;;;;;;;17.89;94.06;96793.09;5068801;28;20036;-77
2022/08/07 06:31:26;;;;;;;4.25;1.80;;;;;;;17.94;93.61;96797.88;5086220;28;20047;-77
2022/08/07 06:33:54;;;;;;;3.35;1.73;;;;;;;17.80;95.52;96790.75;5085524;28;20036;-76
2022/08/07 06:36:20;;;;;;;2.60;1.50;;;;;;;18.42;90.90;96798.03;5079288;28;20035;-77
2022/08/07 06:38:50;;;;;;;4.80;1.90;;;;;;;18.41;89.79;96796.38;5071960;28;20042;-75
2022/08/07 06:41:40;;;;;;;3.58;1.95;;;;;;;18.69;88.13;96787.53;5084766;28;20031;-77
2022/08/07 06:44:10;;;;;;;5.22;2.30;;;;;;;19.01;87.08;96786.06;5087200;28;20358;-77
2022/08/07 06:46:38;;;;;;;3.95;1.73;;;;;;;18.87;87.27;96789.69;5088943;28;20027;-77
2022/08/07 06:49:05;;;;;;;3.05;1.83;;;;;;;19.14;84.59;96786.13;5085346;28;20508;-76
2022/08/07 06:51:36;;;;;;;3.70;1.80;;;;;;;19.24;84.70;96786.56;5087355;28;20036;-77
2022/08/07 06:54:07;;;;;;;3.47;1.85;;;;;;;19.37;80.17;96785.78;5078916;28;20036;-76
2022/08/07 06:56:38;;;;;;;3.90;1.90;;;;;;;19.46;78.40;96789.91;5086357;28;20489;-77
2022/08/07 06:59:28;;;;;;;;;;;;;;;19.95;74.96;96782.63;5095331;28;20031;-76
2022/08/07 07:02:01;;;;;;;2.42;1.50;;;;;;;19.89;74.59;96775.44;5074414;28;19916;-76
2022/08/07 07:04:29;;;;;;;3.33;1.48;;;;;;;20.47;71.23;96783.63;5086642;28;20042;-77
2022/08/07 07:06:55;;;;;;;2.50;1.55;;;;;;;20.97;67.73;96775.09;5084198;28;20385;-76
2022/08/07 07:09:22;;;;;;;1.63;1.10;;;;;;;20.57;69.50;96776.03;5080481;28;20028;-77
2022/08/07 07:12:06;;;;;;;2.22;1.27;;;;;;;20.85;64.07;96786.44;5088110;28;20073;-76
2022/08/07 07:14:44;;;;;;;2.25;1.20;;;;;;;20.74;64.80;96783.59;5084061;28;20054;-77
2022/08/07 07:17:16;;;;;;;1.15;0.90;;;;;;;21.07;60.56;96786.16;5086277;28;20051;-77
2022/08/07 07:19:49;;;;;;;1.33;1.02;;;;;;;21.05;58.76;96782.88;5087408;28;20036;-76
2022/08/07 07:22:17;;;;;;;1.88;1.10;;;;;;;21.52;56.43;96788.84;5070917;28;20032;-77
2022/08/07 07:24:43;;;;;;;3.40;1.23;;;;;;;20.62;56.92;96784.25;5088244;28;20041;-77
2022/08/07 07:27:12;;;;;;;3.38;1.40;;;;;;;21.64;56.35;96784.47;5085561;28;20443;-75
2022/08/07 07:29:46;;;;;;;1.73;1.10;;;;;;;21.83;54.68;96777.31;5088193;28;20024;-77
2022/08/07 07:32:13;;;;;;;1.95;0.88;;;;;;;22.71;49.60;96768.34;5075451;28;20036;-77
2022/08/07 07:34:44;;;;;;;1.15;0.90;;;;;;;22.16;49.87;96779.78;5072046;28;20043;-78
2022/08/07 07:37:11;;;;;;;2.33;1.00;;;;;;;21.69;49.06;96773.91;5083220;28;20028;-77
2022/08/07 07:39:38;;;;;;;1.75;0.90;;;;;;;21.60;48.36;96777.91;5081710;28;20397;-77
2022/08/07 07:42:06;;;;;;;3.85;1.88;;;;;;;21.96;46.65;96769.19;5087218;28;20526;-75
2022/08/07 07:44:34;;;;;;;2.40;1.02;;;;;;;21.83;46.67;96780.84;5085787;28;20027;-76
2022/08/07 07:47:01;;;;;;;3.25;1.35;;;;;;;21.48;48.35;96779.63;5085641;28;20055;-77
2022/08/07 07:49:28;;;;;;;2.92;0.90;;;;;;;21.23;47.79;96775.00;5087527;28;20040;-77
2022/08/07 07:51:56;;;;;;;2.60;1.02;;;;;;;22.10;46.21;96770.75;5069151;28;20051;-77
2022/08/07 07:54:23;;;;;;;1.67;0.80;;;;;;;22.00;46.16;96772.25;5086711;28;20587;-74
2022/08/07 07:56:51;;;;;;;1.27;0.77;;;;;;;21.88;46.91;96775.66;5078108;28;20538;-77
2022/08/07 07:59:19;;;;;;;1.92;0.80;;;;;;;21.62;45.57;96778.50;5084733;28;20039;-76
2022/08/07 08:01:48;;;;;;;5.72;1.00;;;;;;;21.50;45.92;96766.84;5070032;28;20436;-78
2022/08/07 08:04:16;;;;;;;2.65;0.88;;;;;;;22.03;45.65;96763.78;5062280;28;20545;-77
2022/08/07 08:06:44;;;;;;;0.95;0.80;;;;;;;21.92;44.79;96767.19;5083525;28;20036;-77
2022/08/07 08:09:13;;;;;;;2.15;1.00;;;;;;;20.77;48.92;96764.47;5086104;28;20033;-77
2022/08/07 08:11:40;;;;;;;1.80;0.90;;;;;;;22.71;44.76;96754.94;5081873;28;20028;-77
2022/08/07 08:14:05;;;;;;;1.77;0.63;;;;;;;23.29;41.72;96752.59;5082454;28;20531;-77
2022/08/07 08:16:36;;;;;;;6.55;0.73;;;;;;;23.10;41.95;96752.84;5083688;28;20038;-76
2022/08/07 08:19:05;;;;;;;1.52;0.90;;;;;;;22.95;43.22;96753.25;5087310;28;20039;-77
2022/08/07 08:27:10;;;;;;;0.80;0.60;;;;;;;22.92;40.28;96745.63;5083347;28;20101;-77
2022/08/07 08:29:56;;;;;;;1.65;0.68;;;;;;;23.18;38.92;96756.06;5067672;28;20115;-77
2022/08/07 08:32:24;;;;;;;2.10;0.50;;;;;;;23.88;37.14;96742.06;5085085;28;20028;-77
2022/08/07 08:34:52;;;;;;;1.95;0.68;;;;;;;24.03;36.50;96732.72;5088253;28;20252;-76
2022/08/07 08:37:20;;;;;;;1.55;0.98;;;;;;;22.57;38.19;96749.72;5086439;28;20568;-78
2022/08/07 08:39:48;;;;;;;1.65;0.60;;;;;;;21.93;38.28;96752.75;5082459;28;20039;-78
2022/08/07 08:42:28;;;;;;;3.40;1.13;;;;;;;23.01;38.11;96752.34;5082096;28;20032;-77
2022/08/07 08:45:09;;;;;;;0.77;0.60;;;;;;;24.03;36.55;96741.59;5068734;28;20036;-77
2022/08/07 08:47:59;;;;;;;1.63;0.60;;;;;;;23.86;36.38;96740.66;5084811;28;20035;-76
2022/08/07 08:50:29;;;;;;;2.28;0.85;;;;;;;24.60;35.67;96736.50;5085312;28;20020;-76
2022/08/07 08:53:33;;;;;;;1.33;0.60;;;;;;;24.08;35.28;96738.22;5072344;28;20032;-74
2022/08/07 08:56:07;;;;;;;0.68;0.50;;;;;;;24.57;35.42;96739.66;5085724;28;20064;-76
2022/08/07 08:58:42;;;;;;;3.03;0.88;;;;;;;24.90;34.65;96735.50;5094248;28;20106;-78
2022/08/07 09:01:15;;;;;;;2.38;1.35;;;;;;;24.94;34.55;96732.09;5073166;28;20040;-77
2022/08/07 09:04:09;;;;;;;1.20;0.85;;;;;;;25.36;33.42;96729.19;5093480;28;20400;-77
2022/08/07 09:06:38;;;;;;;1.55;0.73;;;;;;;24.94;32.33;96732.09;5089306;28;20024;-77
2022/08/07 09:09:22;;;;;;;1.52;0.77;;;;;;;25.00;32.23;96729.50;5085125;28;20037;-78
2022/08/07 09:12:11;;;;;;;3.05;0.68;;;;;;;25.00;31.85;96732.22;5089731;28;20043;-78
2022/08/07 09:15:11;;;;;;;0.98;0.50;;;;;;;25.38;31.26;96726.22;5094431;28;20032;-77
2022/08/07 09:17:45;;;;;;;2.67;0.73;;;;;;;25.96;30.26;96725.13;5093019;28;20084;-78
2022/08/07 09:20:18;;;;;;;1.42;0.60;;;;;;;25.71;30.67;96727.34;5098323;28;20027;-77
2022/08/07 09:23:01;;;;;;;1.35;0.60;;;;;;;25.49;31.37;96728.06;5080897;28;20138;-76
2022/08/07 09:25:38;;;;;;;;;;;;;;;24.77;32.59;96741.16;5096215;28;20038;-77
2022/08/07 09:28:06;;;;;;;2.65;0.95;;;;;;;23.89;32.88;96735.63;5097750;28;20325;-77
2022/08/07 09:30:43;;;;;;;2.00;0.80;;;;;;;24.79;32.03;96739.03;5095641;28;20607;-77
2022/08/07 09:33:42;;;;;;;2.35;1.17;;;;;;;24.20;32.80;96739.88;5101109;28;20036;-76
2022/08/07 09:36:21;;;;;;;1.25;0.70;;;;;;;24.19;32.73;96740.91;5098230;28;20169;-76
2022/08/07 09:39:01;;;;;;;2.03;0.88;;;;;;;24.11;32.54;96732.38;5100946;28;20028;-76
2022/08/07 09:41:43;;;;;;;0.75;0.70;;;;;;;24.71;32.54;96732.13;5093086;28;20058;-77
2022/08/07 09:44:44;;;;;;;0.52;0.52;;;;;;;24.11;33.72;96735.91;5097939;28;20115;-76
2022/08/07 09:48:07;;;;;;;2.15;0.75;;;;;;;25.21;32.49;96730.75;5090078;28;20048;-77
2022/08/07 09:50:53;;;;;;;1.20;0.75;;;;;;;23.75;33.94;96745.78;5032614;28;20052;-75
2022/08/07 09:53:22;;;;;;;0.85;0.70;;;;;;;23.90;34.46;96736.44;5082722;28;20036;-73
2022/08/07 09:55:50;;;;;;;1.63;0.85;;;;;;;24.13;34.27;96730.28;5078230;28;20039;-74
2022/08/07 09:58:34;;;;;;;2.30;0.95;;;;;;;25.39;32.19;96727.88;5098432;28;20091;-76
2022/08/07 10:01:09;;;;;;;2.97;0.70;;;;;;;25.70;31.87;96728.44;5091983;28;20051;-77
2022/08/07 10:03:50;;;;;;;1.55;0.70;;;;;;;26.31;31.32;96714.06;5099814;28;20039;-76
2022/08/07 10:06:36;;;;;;;1.27;0.70;;;;;;;25.43;32.00;96718.25;5091166;28;20085;-77
2022/08/07 10:09:37;;;;;;;1.45;0.55;;;;;;;25.32;31.94;96711.06;5092403;28;20118;-77
2022/08/07 10:12:40;;;;;;;1.00;0.47;;;;;;;26.36;30.64;96715.19;5084817;28;20044;-77
2022/08/07 10:15:22;;;;;;;1.65;0.68;;;;;;;25.89;31.11;96712.84;5083050;28;20063;-75
2022/08/07 10:18:22;;;;;;;0.73;0.50;;;;;;;25.68;31.20;96711.69;5092000;28;20036;-77
2022/08/07 10:21:26;;;;;;;3.10;0.70;;;;;;;26.16;30.44;96700.38;5085255;28;20099;-77
2022/08/07 10:24:03;;;;;;;1.23;0.60;;;;;;;26.00;30.32;96695.81;5064542;28;20401;-78
2022/08/07 10:26:43;;;;;;;1.13;0.80;;;;;;;25.55;29.74;96705.56;5094980;28;20130;-77
2022/08/07 10:29:15;;;;;;;3.47;0.80;;;;;;;26.04;29.22;96695.06;5092066;28;20370;-77
2022/08/07 10:32:00;;;;;;;1.73;0.80;;;;;;;26.33;29.21;96697.66;5091644;28;20072;-78
2022/08/07 10:35:23;;;;;;;1.55;0.63;;;;;;;25.79;29.00;96690.06;5085003;28;20097;-77
2022/08/07 10:38:19;;;;;;;1.42;1.00;;;;;;;26.36;28.21;96688.22;5077984;28;20036;-77
2022/08/07 10:41:00;;;;;;;1.25;0.68;;;;;;;26.61;27.99;96682.41;5082030;28;20036;-77
2022/08/07 10:43:32;;;;;;;1.00;0.52;;;;;;;26.77;27.45;96674.25;5084177;28;20027;-77
2022/08/07 10:46:00;;;;;;;0.60;0.50;;;;;;;26.33;27.57;96665.28;5079809;28;20035;-77
2022/08/07 10:48:47;;;;;;;1.33;0.60;;;;;;;26.70;28.07;96662.03;5082725;28;20042;-77
2022/08/07 10:51:21;;;;;;;3.05;0.70;;;;;;;26.31;28.17;96670.91;5091816;28;20036;-77
2022/08/07 10:53:56;;;;;;;1.88;0.80;;;;;;;26.10;27.99;96674.41;5091597;28;20036;-78
2022/08/07 10:56:35;;;;;;;0.77;0.60;;;;;;;27.09;27.35;96659.19;5066616;28;20092;-78
2022/08/07 10:59:31;;;;;;;0.95;0.60;;;;;;;27.11;27.07;96662.47;5089806;28;20035;-78
2022/08/07 11:02:17;;;;;;;1.23;0.70;;;;;;;27.74;26.34;96660.94;5096569;28;20063;-78
2022/08/07 11:05:05;;;;;;;2.13;0.55;;;;;;;27.28;27.09;96660.53;5095843;28;20922;-77
2022/08/07 11:07:52;;;;;;;1.73;0.60;;;;;;;26.96;27.34;96649.63;5088599;28;20032;-78
2022/08/07 11:10:43;;;;;;;1.50;0.80;;;;;;;26.85;27.24;96655.97;5082129;28;20035;-77
2022/08/07 11:13:14;;;;;;;2.15;0.85;;;;;;;26.94;27.50;96647.19;5069886;28;20052;-78
2022/08/07 11:15:44;;;;;;;3.70;0.70;;;;;;;27.41;26.84;96651.19;5091777;28;20044;-78
2022/08/07 11:18:23;;;;;;;0.88;0.68;;;;;;;26.65;27.57;96643.88;5091759;28;20036;-78
2022/08/07 11:21:23;;;;;;;2.55;0.80;;;;;;;28.00;26.25;96626.00;5070675;28;20111;-77
2022/08/07 11:23:58;;;;;;;1.52;0.80;;;;;;;28.78;25.38;96632.38;5087359;28;20032;-75
2022/08/07 11:26:37;;;;;;;2.50;0.85;;;;;;;28.44;25.63;96629.28;5068026;28;20028;-78
2022/08/07 11:29:13;;;;;;;1.27;0.47;;;;;;;27.74;26.58;96633.91;5092215;28;20750;-77
2022/08/07 11:32:04;;;;;;;1.50;0.90;;;;;;;28.21;25.17;96625.06;5091250;28;20111;-78
2022/08/07 11:34:40;;;;;;;3.58;0.82;;;;;;;27.34;26.43;96632.50;5085525;28;20398;-77
2022/08/07 11:37:25;;;;;;;3.03;1.08;;;;;;;28.45;25.05;96625.47;5095036;28;20057;-78
2022/08/07 11:40:13;;;;;;;2.78;0.70;;;;;;;27.92;25.57;96630.81;5092064;28;20036;-78
2022/08/07 11:42:51;;;;;;;1.40;0.60;;;;;;;28.99;25.41;96622.41;5072319;28;20104;-76
2022/08/07 11:45:38;;;;;;;0.90;0.60;;;;;;;28.85;25.49;96608.56;5084410;28;20089;-78
2022/08/07 11:48:29;;;;;;;2.20;0.80;;;;;;;29.41;25.38;96612.47;5092441;28;20499;-78
2022/08/07 11:51:16;;;;;;;1.40;0.80;;;;;;;28.83;25.82;96610.72;5092704;28;20035;-78
2022/08/07 11:54:18;;;;;;;0.90;0.63;;;;;;;29.89;24.32;96604.91;5087705;28;20032;-77
2022/08/07 11:57:04;;;;;;;0.57;0.57;;;;;;;29.65;24.38;96594.63;5091364;28;20160;-79
2022/08/07 11:59:46;;;;;;;1.48;0.55;;;;;;;28.34;25.40;96599.44;5092576;28;20036;-77
2022/08/07 12:02:35;;;;;;;1.15;0.77;;;;;;;29.39;25.05;96604.63;5086516;28;20052;-75
2022/08/07 12:05:19;;;;;;;2.50;1.00;;;;;;;28.02;26.13;96607.63;5080318;28;20087;-77